Time;durP1;ratioP1;P1;durP2;ratioP2;P2;SDS_P1;SDS_P2;PMS_P1;PMS_P2;Temp;Humidity;BMP_temperature;BMP_pressure;BME280_temperature;BME280_humidity;BME280_pressure;Samples;Min_cycle;Max_cycle;Signal;HPM_P1;HPM_P2
2023/11/08 00:00:07;;;;;;;1.52;0.40;;;;;;;;;;5023708;28;20490;-79
2023/11/08 00:02:39;;;;;;;1.63;0.50;;;;;;;;;;5028497;28;20044;-78
2023/11/08 00:05:05;;;;;;;0.98;0.30;;;;;;;;;;5041890;28;20037;-78
2023/11/08 00:07:30;;;;;;;2.38;0.40;;;;;;;;;;5027065;28;20038;-78
2023/11/08 00:09:56;;;;;;;2.00;0.70;;;;;;;;;;5026120;28;20133;-78
2023/11/08 00:12:21;;;;;;;1.20;0.47;;;;;;;;;;5028719;28;20037;-77
2023/11/08 00:14:46;;;;;;;1.17;0.30;;;;;;;;;;5032824;28;20038;-78
2023/11/08 00:17:13;;;;;;;1.52;0.40;;;;;;;;;;5031905;28;20033;-79
2023/11/08 00:19:38;;;;;;;1.23;0.30;;;;;;;;;;5026526;28;20426;-78
2023/11/08 00:22:04;;;;;;;1.25;0.30;;;;;;;;;;5029948;28;20033;-78
2023/11/08 00:24:30;;;;;;;2.92;0.60;;;;;;;;;;5013382;28;20089;-79
2023/11/08 00:26:55;;;;;;;2.22;0.40;;;;;;;;;;5033251;28;20037;-78
2023/11/08 00:29:22;;;;;;;3.30;0.50;;;;;;;;;;5032061;28;20030;-78
2023/11/08 00:31:48;;;;;;;2.15;0.40;;;;;;;;;;5031251;28;20080;-78
2023/11/08 00:34:15;;;;;;;0.77;0.20;;;;;;;;;;5029840;28;20022;-78
2023/11/08 00:36:40;;;;;;;3.80;0.35;;;;;;;;;;5015595;28;20061;-78
2023/11/08 00:39:05;;;;;;;1.48;0.40;;;;;;;;;;5040253;28;20068;-78
2023/11/08 00:41:32;;;;;;;1.45;0.47;;;;;;;;;;5031171;28;20033;-78
2023/11/08 00:43:57;;;;;;;1.60;0.43;;;;;;;;;;5032274;28;20032;-79
2023/11/08 00:46:23;;;;;;;1.73;0.73;;;;;;;;;;5027651;28;20457;-79
2023/11/08 00:48:48;;;;;;;3.05;0.70;;;;;;;;;;5032287;28;20074;-78
2023/11/08 00:51:14;;;;;;;1.98;0.40;;;;;;;;;;5024415;28;20032;-79
2023/11/08 00:53:39;;;;;;;2.30;0.40;;;;;;;;;;5030096;28;20517;-78
2023/11/08 00:56:05;;;;;;;2.40;0.65;;;;;;;;;;5016830;28;20579;-78
2023/11/08 00:58:30;;;;;;;2.42;0.47;;;;;;;;;;5029624;28;20108;-78
2023/11/08 01:00:55;;;;;;;0.88;0.30;;;;;;;;;;5028368;28;20490;-79
2023/11/08 01:03:20;;;;;;;0.77;0.30;;;;;;;;;;5029431;28;20417;-79
2023/11/08 01:05:46;;;;;;;2.72;0.70;;;;;;;;;;5024047;28;20394;-79
2023/11/08 01:08:12;;;;;;;0.98;0.30;;;;;;;;;;5032470;28;20025;-78
2023/11/08 01:10:40;;;;;;;1.25;0.43;;;;;;;;;;5029347;28;20034;-79
2023/11/08 01:13:06;;;;;;;0.50;0.20;;;;;;;;;;5031732;28;20025;-79
2023/11/08 01:15:31;;;;;;;2.80;0.60;;;;;;;;;;5021006;28;20231;-79
2023/11/08 01:17:56;;;;;;;2.28;0.43;;;;;;;;;;5026601;28;20597;-79
2023/11/08 01:20:22;;;;;;;1.48;0.40;;;;;;;;;;5025378;28;20039;-79
2023/11/08 01:22:47;;;;;;;2.80;0.35;;;;;;;;;;5030819;28;20038;-79
2023/11/08 01:25:13;;;;;;;1.85;0.47;;;;;;;;;;5017361;28;20073;-79
2023/11/08 01:27:38;;;;;;;2.85;0.40;;;;;;;;;;5028882;28;20112;-79
2023/11/08 01:30:04;;;;;;;0.95;0.30;;;;;;;;;;5039372;28;20026;-78
2023/11/08 01:32:31;;;;;;;6.15;0.43;;;;;;;;;;5025383;28;20030;-78
2023/11/08 01:34:57;;;;;;;1.17;0.30;;;;;;;;;;5035207;28;20064;-78
2023/11/08 01:37:22;;;;;;;0.95;0.30;;;;;;;;;;5025225;28;20490;-78
2023/11/08 01:39:48;;;;;;;1.58;0.50;;;;;;;;;;5028035;28;20030;-78
2023/11/08 01:42:13;;;;;;;1.25;0.43;;;;;;;;;;5030916;28;20069;-78
2023/11/08 01:44:39;;;;;;;1.90;0.40;;;;;;;;;;5026551;28;20037;-78
2023/11/08 01:47:06;;;;;;;0.95;0.30;;;;;;;;;;5019701;28;20116;-78
2023/11/08 01:49:31;;;;;;;0.98;0.20;;;;;;;;;;5021678;28;20025;-78
2023/11/08 01:51:56;;;;;;;1.38;0.40;;;;;;;;;;5030884;28;20036;-78
2023/11/08 01:54:23;;;;;;;1.55;0.35;;;;;;;;;;5027827;28;20025;-78
2023/11/08 01:56:48;;;;;;;3.30;0.60;;;;;;;;;;5030357;28;20034;-78
2023/11/08 01:59:15;;;;;;;1.90;0.40;;;;;;;;;;5029822;28;20037;-78
2023/11/08 02:01:41;;;;;;;1.92;0.30;;;;;;;;;;5028870;28;20034;-78
2023/11/08 02:04:06;;;;;;;4.18;0.70;;;;;;;;;;5022377;28;20125;-78
2023/11/08 02:06:32;;;;;;;1.35;0.40;;;;;;;;;;5028017;28;20048;-78
2023/11/08 02:09:00;;;;;;;3.08;0.43;;;;;;;;;;5028879;28;20418;-78
2023/11/08 02:11:25;;;;;;;2.22;0.50;;;;;;;;;;5032649;28;20375;-78
2023/11/08 02:13:50;;;;;;;2.78;0.38;;;;;;;;;;5028859;28;20167;-78
2023/11/08 02:16:16;;;;;;;1.42;0.32;;;;;;;;;;5021032;28;20029;-78
2023/11/08 02:18:41;;;;;;;3.38;0.73;;;;;;;;;;5039721;28;20040;-78
2023/11/08 02:21:08;;;;;;;3.67;0.50;;;;;;;;;;5043051;28;20022;-78
2023/11/08 02:23:35;;;;;;;1.45;0.38;;;;;;;;;;5032107;28;20105;-78
2023/11/08 02:26:00;;;;;;;1.83;0.50;;;;;;;;;;5034414;28;20022;-78
2023/11/08 02:28:26;;;;;;;3.38;0.50;;;;;;;;;;5025722;28;20045;-78
2023/11/08 02:30:53;;;;;;;1.15;0.38;;;;;;;;;;5030873;28;20505;-78
2023/11/08 02:33:19;;;;;;;2.28;0.60;;;;;;;;;;5034335;28;20033;-78
2023/11/08 02:35:44;;;;;;;4.65;0.60;;;;;;;;;;5032627;28;20133;-78
2023/11/08 02:38:11;;;;;;;2.78;0.63;;;;;;;;;;5043055;28;20033;-78
2023/11/08 02:40:37;;;;;;;3.63;0.75;;;;;;;;;;5033776;28;20108;-78
2023/11/08 02:43:02;;;;;;;3.92;0.60;;;;;;;;;;5018363;28;20125;-79
2023/11/08 02:45:28;;;;;;;3.15;0.43;;;;;;;;;;5046275;28;20061;-79
2023/11/08 02:47:53;;;;;;;2.97;0.70;;;;;;;;;;5032470;28;20064;-80
2023/11/08 02:50:18;;;;;;;3.97;0.60;;;;;;;;;;5033716;28;20026;-80
2023/11/08 02:52:44;;;;;;;5.25;0.85;;;;;;;;;;5027885;28;20079;-80
2023/11/08 02:55:11;;;;;;;2.05;0.52;;;;;;;;;;5018846;28;20075;-80
2023/11/08 02:57:36;;;;;;;4.35;0.80;;;;;;;;;;5031236;28;20029;-79
2023/11/08 03:00:03;;;;;;;5.20;1.20;;;;;;;;;;5034973;28;20033;-79
2023/11/08 03:02:33;;;;;;;2.28;0.63;;;;;;;;;;5022642;28;20033;-79
2023/11/08 03:04:58;;;;;;;4.80;0.90;;;;;;;;;;5029303;28;20057;-79
2023/11/08 03:07:24;;;;;;;6.20;0.88;;;;;;;;;;5030263;28;20057;-79
2023/11/08 03:09:50;;;;;;;3.72;0.50;;;;;;;;;;5032007;28;20398;-79
2023/11/08 03:12:15;;;;;;;2.50;0.52;;;;;;;;;;5040974;28;20029;-79
2023/11/08 03:14:40;;;;;;;3.30;0.70;;;;;;;;;;5042325;28;20021;-78
2023/11/08 03:17:05;;;;;;;2.97;0.63;;;;;;;;;;5036805;28;20036;-79
2023/11/08 03:19:31;;;;;;;2.80;0.70;;;;;;;;;;5032046;28;20078;-79
2023/11/08 03:21:57;;;;;;;3.10;0.65;;;;;;;;;;5035570;28;20175;-78
2023/11/08 03:24:22;;;;;;;4.95;0.65;;;;;;;;;;5028703;28;20045;-78
2023/11/08 03:26:49;;;;;;;2.33;0.80;;;;;;;;;;5036372;28;20029;-79
2023/11/08 03:29:14;;;;;;;2.85;0.70;;;;;;;;;;5038913;28;20032;-79
2023/11/08 03:31:39;;;;;;;4.50;0.82;;;;;;;;;;5034999;28;20054;-79
2023/11/08 03:34:04;;;;;;;2.85;0.70;;;;;;;;;;5034577;28;20437;-77
2023/11/08 03:36:30;;;;;;;2.08;0.38;;;;;;;;;;5004654;28;20092;-77
2023/11/08 03:38:56;;;;;;;2.50;0.80;;;;;;;;;;5028260;28;20068;-78
2023/11/08 03:41:24;;;;;;;4.15;1.00;;;;;;;;;;5035621;28;20024;-77
2023/11/08 03:43:50;;;;;;;4.65;0.85;;;;;;;;;;5030193;28;20026;-77
2023/11/08 03:46:16;;;;;;;4.60;0.77;;;;;;;;;;5034849;28;20030;-77
2023/11/08 03:48:41;;;;;;;3.70;0.60;;;;;;;;;;5028777;28;20080;-77
2023/11/08 03:51:06;;;;;;;4.28;0.85;;;;;;;;;;5029490;28;20061;-77
2023/11/08 03:53:31;;;;;;;4.30;1.00;;;;;;;;;;5035187;28;20056;-78
2023/11/08 03:55:57;;;;;;;1.75;0.50;;;;;;;;;;5041551;28;20029;-78
2023/11/08 03:58:22;;;;;;;3.08;0.68;;;;;;;;;;5040797;28;20021;-78
2023/11/08 04:00:47;;;;;;;3.95;0.70;;;;;;;;;;5035662;28;20030;-79
2023/11/08 04:03:12;;;;;;;1.88;0.38;;;;;;;;;;5032551;28;20041;-78
2023/11/08 04:05:37;;;;;;;2.33;0.65;;;;;;;;;;5034045;28;20029;-78
2023/11/08 04:08:06;;;;;;;6.30;1.00;;;;;;;;;;5037770;28;20089;-78
2023/11/08 04:10:32;;;;;;;4.07;0.98;;;;;;;;;;5031958;28;20034;-78
2023/11/08 04:12:57;;;;;;;5.03;1.25;;;;;;;;;;5037132;28;20017;-78
2023/11/08 04:15:22;;;;;;;6.75;1.50;;;;;;;;;;5037012;28;20037;-78
2023/11/08 04:17:47;;;;;;;2.42;0.90;;;;;;;;;;5037219;28;20032;-79
2023/11/08 04:20:12;;;;;;;4.53;0.90;;;;;;;;;;5024566;28;20542;-78
2023/11/08 04:22:41;;;;;;;3.10;0.80;;;;;;;;;;5038757;28;20029;-78
2023/11/08 04:25:07;;;;;;;8.00;1.25;;;;;;;;;;5033337;28;20029;-78
2023/11/08 04:27:32;;;;;;;4.43;0.82;;;;;;;;;;5036477;28;20060;-78
2023/11/08 04:29:57;;;;;;;5.07;1.02;;;;;;;;;;5038699;28;20028;-78
2023/11/08 04:32:23;;;;;;;4.95;0.70;;;;;;;;;;5032052;28;20034;-78
2023/11/08 04:34:49;;;;;;;6.28;1.58;;;;;;;;;;5028837;28;20038;-78
2023/11/08 04:37:14;;;;;;;6.07;0.95;;;;;;;;;;5037361;28;20022;-78
2023/11/08 04:39:40;;;;;;;3.25;0.70;;;;;;;;;;5011727;28;20041;-78
2023/11/08 04:42:05;;;;;;;2.10;0.63;;;;;;;;;;5036592;28;20037;-78
2023/11/08 04:44:31;;;;;;;3.47;1.42;;;;;;;;;;5032828;28;20600;-78
2023/11/08 04:46:56;;;;;;;3.83;0.50;;;;;;;;;;5029163;28;20183;-78
2023/11/08 04:49:22;;;;;;;2.40;0.52;;;;;;;;;;5037926;28;20025;-78
2023/11/08 04:51:47;;;;;;;6.90;0.88;;;;;;;;;;5028191;28;20036;-78
2023/11/08 04:54:12;;;;;;;4.68;1.20;;;;;;;;;;5037783;28;20032;-78
2023/11/08 04:56:38;;;;;;;3.05;0.60;;;;;;;;;;5033453;28;20375;-79
2023/11/08 04:59:04;;;;;;;2.75;0.60;;;;;;;;;;5031258;28;20051;-78
2023/11/08 05:01:30;;;;;;;5.53;0.90;;;;;;;;;;5030027;28;20390;-78
2023/11/08 05:03:56;;;;;;;5.65;0.82;;;;;;;;;;5030222;28;20057;-78
2023/11/08 05:06:21;;;;;;;5.32;1.05;;;;;;;;;;5037070;28;20037;-78
2023/11/08 05:08:46;;;;;;;5.40;1.10;;;;;;;;;;5033609;28;20088;-78
2023/11/08 05:11:11;;;;;;;4.05;0.90;;;;;;;;;;5032858;28;20038;-79
2023/11/08 05:13:39;;;;;;;6.28;1.55;;;;;;;;;;5031797;28;20033;-78
2023/11/08 05:16:04;;;;;;;3.95;0.70;;;;;;;;;;5029848;28;20030;-78
2023/11/08 05:18:29;;;;;;;3.20;0.60;;;;;;;;;;5034650;28;20025;-78
2023/11/08 05:20:54;;;;;;;4.70;0.70;;;;;;;;;;5038426;28;20033;-79
2023/11/08 05:23:20;;;;;;;4.00;0.68;;;;;;;;;;5039142;28;20116;-79
2023/11/08 05:25:45;;;;;;;3.53;0.75;;;;;;;;;;5035154;28;20104;-78
2023/11/08 05:28:10;;;;;;;3.65;0.70;;;;;;;;;;5033802;28;20431;-79
2023/11/08 05:30:35;;;;;;;5.55;0.90;;;;;;;;;;5032884;28;20100;-79
2023/11/08 05:33:01;;;;;;;5.22;1.67;;;;;;;;;;5034069;28;20033;-79
2023/11/08 05:35:27;;;;;;;7.88;1.60;;;;;;;;;;5029202;28;20025;-79
2023/11/08 05:37:52;;;;;;;4.00;0.80;;;;;;;;;;5006557;28;20124;-79
2023/11/08 05:40:18;;;;;;;4.93;1.25;;;;;;;;;;5024597;28;20183;-78
2023/11/08 05:42:44;;;;;;;4.60;0.82;;;;;;;;;;5014281;28;20038;-78
2023/11/08 05:45:10;;;;;;;7.35;1.02;;;;;;;;;;5028217;28;20026;-78
2023/11/08 05:47:35;;;;;;;5.57;1.40;;;;;;;;;;5024150;28;20040;-78
2023/11/08 05:50:00;;;;;;;6.65;1.42;;;;;;;;;;5030691;28;20036;-78
2023/11/08 05:52:25;;;;;;;5.30;1.90;;;;;;;;;;5027126;28;20079;-78
2023/11/08 05:54:51;;;;;;;5.15;1.40;;;;;;;;;;5016274;28;20026;-79
2023/11/08 05:57:17;;;;;;;6.97;1.85;;;;;;;;;;5027586;28;20096;-78
2023/11/08 05:59:43;;;;;;;25.67;10.10;;;;;;;;;;5026222;28;20037;-78
2023/11/08 06:02:09;;;;;;;6.57;1.15;;;;;;;;;;5029111;28;20025;-79
2023/11/08 06:04:34;;;;;;;4.88;0.70;;;;;;;;;;5026498;28;20025;-78
2023/11/08 06:06:59;;;;;;;5.13;1.33;;;;;;;;;;5026536;28;20021;-78
2023/11/08 06:09:25;;;;;;;2.42;0.55;;;;;;;;;;5018441;28;20087;-79
2023/11/08 06:11:50;;;;;;;3.85;1.50;;;;;;;;;;5025943;28;20099;-79
2023/11/08 06:14:15;;;;;;;3.38;0.75;;;;;;;;;;5029867;28;20388;-78
2023/11/08 06:16:41;;;;;;;2.60;0.50;;;;;;;;;;5029088;28;20183;-78
2023/11/08 06:19:07;;;;;;;2.15;0.47;;;;;;;;;;5029900;28;20021;-78
2023/11/08 06:21:32;;;;;;;2.63;0.63;;;;;;;;;;5028849;28;20029;-78
2023/11/08 06:23:59;;;;;;;3.13;0.40;;;;;;;;;;5024987;28;20017;-78
2023/11/08 06:26:25;;;;;;;2.30;0.52;;;;;;;;;;5021092;28;20091;-78
2023/11/08 06:28:50;;;;;;;1.45;0.30;;;;;;;;;;5024387;28;20026;-78
2023/11/08 06:31:15;;;;;;;7.35;0.60;;;;;;;;;;5029720;28;20375;-78
2023/11/08 06:33:40;;;;;;;3.88;0.70;;;;;;;;;;5027691;28;20026;-78
2023/11/08 06:36:06;;;;;;;2.03;0.50;;;;;;;;;;5027308;28;20072;-78
2023/11/08 06:38:31;;;;;;;1.40;0.30;;;;;;;;;;5023791;28;20037;-78
2023/11/08 06:40:56;;;;;;;2.42;0.40;;;;;;;;;;5026634;28;20030;-78
2023/11/08 06:43:22;;;;;;;2.83;0.80;;;;;;;;;;5030214;28;20025;-79
2023/11/08 06:45:47;;;;;;;2.08;0.60;;;;;;;;;;5029509;28;20399;-78
2023/11/08 06:48:12;;;;;;;2.03;0.60;;;;;;;;;;5030181;28;20033;-78
2023/11/08 06:50:37;;;;;;;12.55;4.88;;;;;;;;;;5027287;28;20058;-78
2023/11/08 06:53:03;;;;;;;2.83;0.70;;;;;;;;;;5025610;28;20022;-78
2023/11/08 06:55:32;;;;;;;3.75;0.47;;;;;;;;;;5032281;28;20401;-78
2023/11/08 06:57:58;;;;;;;2.22;0.43;;;;;;;;;;5032414;28;20394;-78
2023/11/08 07:00:24;;;;;;;4.30;1.17;;;;;;;;;;5031685;28;20109;-78
2023/11/08 07:02:49;;;;;;;3.90;1.02;;;;;;;;;;5029480;28;20026;-78
2023/11/08 07:05:14;;;;;;;3.45;0.32;;;;;;;;;;5030391;28;20034;-79
2023/11/08 07:07:40;;;;;;;3.60;0.32;;;;;;;;;;5029059;28;20025;-78
2023/11/08 07:10:06;;;;;;;1.45;0.30;;;;;;;;;;5035805;28;20462;-79
2023/11/08 07:12:31;;;;;;;2.08;0.30;;;;;;;;;;5033740;28;20033;-79
2023/11/08 07:14:56;;;;;;;1.20;0.30;;;;;;;;;;5035153;28;20481;-79
2023/11/08 07:17:22;;;;;;;4.60;0.50;;;;;;;;;;5030134;28;20033;-78
2023/11/08 07:19:47;;;;;;;2.60;0.57;;;;;;;;;;5027967;28;20117;-78
2023/11/08 07:22:12;;;;;;;5.47;1.00;;;;;;;;;;5029073;28;20025;-79
2023/11/08 07:24:37;;;;;;;2.88;0.55;;;;;;;;;;5035405;28;20021;-79
2023/11/08 07:27:03;;;;;;;5.18;1.52;;;;;;;;;;5034140;28;20113;-79
2023/11/08 07:29:28;;;;;;;0.93;0.28;;;;;;;;;;5032571;28;20102;-79
2023/11/08 07:31:53;;;;;;;2.63;0.70;;;;;;;;;;5027819;28;20034;-78
2023/11/08 07:34:22;;;;;;;3.90;0.30;;;;;;;;;;5033112;28;20049;-78
2023/11/08 07:36:48;;;;;;;4.28;0.77;;;;;;;;;;5032988;28;20095;-78
2023/11/08 07:39:15;;;;;;;1.65;0.45;;;;;;;;;;5036412;28;20051;-78
2023/11/08 07:41:40;;;;;;;2.13;0.35;;;;;;;;;;5032462;28;20025;-78
2023/11/08 07:44:07;;;;;;;1.65;0.45;;;;;;;;;;5045776;28;20021;-78
2023/11/08 07:46:33;;;;;;;1.13;0.30;;;;;;;;;;5035650;28;20033;-78
2023/11/08 07:48:58;;;;;;;3.10;0.90;;;;;;;;;;5030725;28;20596;-79
2023/11/08 07:51:25;;;;;;;2.30;0.50;;;;;;;;;;5039051;28;20026;-78
2023/11/08 07:53:50;;;;;;;3.53;0.40;;;;;;;;;;5035127;28;20487;-78
2023/11/08 07:56:16;;;;;;;3.40;0.77;;;;;;;;;;5035699;28;20113;-79
2023/11/08 07:58:42;;;;;;;2.20;0.73;;;;;;;;;;5032513;28;20557;-79
2023/11/08 08:01:09;;;;;;;3.25;0.85;;;;;;;;;;5030862;28;20485;-78
2023/11/08 08:03:35;;;;;;;2.88;0.80;;;;;;;;;;5025719;28;20033;-78
2023/11/08 08:06:03;;;;;;;3.35;0.50;;;;;;;;;;5029454;28;20555;-79
2023/11/08 08:08:29;;;;;;;3.67;0.45;;;;;;;;;;5039610;28;20084;-79
2023/11/08 08:10:54;;;;;;;3.13;0.50;;;;;;;;;;5030570;28;20037;-78
2023/11/08 08:13:20;;;;;;;6.63;1.00;;;;;;;;;;5034176;28;20041;-78
2023/11/08 08:15:45;;;;;;;1.60;0.40;;;;;;;;;;5027140;28;20499;-78
2023/11/08 08:18:11;;;;;;;1.27;0.40;;;;;;;;;;5034874;28;20057;-79
2023/11/08 08:20:37;;;;;;;2.40;0.30;;;;;;;;;;5032942;28;20068;-78
2023/11/08 08:23:03;;;;;;;0.73;0.20;;;;;;;;;;5030031;28;20168;-78
2023/11/08 08:25:28;;;;;;;1.50;0.47;;;;;;;;;;5028965;28;20069;-79
2023/11/08 08:27:53;;;;;;;3.22;0.60;;;;;;;;;;5027937;28;20056;-78
2023/11/08 08:30:20;;;;;;;1.88;0.50;;;;;;;;;;5030681;28;20104;-78
2023/11/08 08:32:47;;;;;;;2.75;0.70;;;;;;;;;;5024112;28;20088;-78
2023/11/08 08:35:12;;;;;;;3.78;0.98;;;;;;;;;;5040344;28;20042;-78
2023/11/08 08:37:37;;;;;;;6.00;0.70;;;;;;;;;;5022595;28;20032;-78
2023/11/08 08:40:12;;;;;;;5.45;0.80;;;;;;;;;;5031754;28;20029;-78
2023/11/08 08:42:41;;;;;;;5.53;1.15;;;;;;;;;;5025536;28;20037;-78
2023/11/08 08:45:08;;;;;;;3.28;0.70;;;;;;;;;;5027254;28;20441;-78
2023/11/08 08:47:33;;;;;;;2.40;0.68;;;;;;;;;;5031711;28;20037;-79
2023/11/08 08:49:59;;;;;;;3.55;0.30;;;;;;;;;;5032745;28;20405;-79
2023/11/08 08:52:25;;;;;;;2.20;0.52;;;;;;;;;;5030621;28;20025;-78
2023/11/08 08:54:50;;;;;;;1.85;0.32;;;;;;;;;;5027244;28;20447;-78
2023/11/08 08:57:15;;;;;;;2.30;0.20;;;;;;;;;;5027977;28;20083;-78
2023/11/08 08:59:41;;;;;;;2.35;0.50;;;;;;;;;;5030523;28;20048;-78
2023/11/08 09:02:06;;;;;;;2.45;0.43;;;;;;;;;;5033999;28;20505;-78
2023/11/08 09:04:32;;;;;;;3.72;0.57;;;;;;;;;;5022455;28;20509;-78
2023/11/08 09:06:57;;;;;;;2.13;0.52;;;;;;;;;;5039105;28;20038;-78
2023/11/08 09:09:23;;;;;;;2.10;0.45;;;;;;;;;;5057836;23;20168;-79
2023/11/08 09:11:48;;;;;;;4.13;0.40;;;;;;;;;;5003722;28;20030;-80
2023/11/08 09:14:15;;;;;;;4.22;0.93;;;;;;;;;;5011893;28;20423;-78
2023/11/08 09:16:40;;;;;;;3.10;0.47;;;;;;;;;;5008578;28;20030;-80
2023/11/08 09:19:08;;;;;;;2.40;0.38;;;;;;;;;;5010870;28;20034;-79
2023/11/08 09:21:34;;;;;;;3.13;0.80;;;;;;;;;;5007589;28;20026;-79
2023/11/08 09:23:59;;;;;;;2.13;0.85;;;;;;;;;;5001232;28;20439;-79
2023/11/08 09:26:24;;;;;;;1.90;0.60;;;;;;;;;;5002477;28;20125;-78
2023/11/08 09:28:49;;;;;;;2.88;0.70;;;;;;;;;;5009573;28;20030;-78
2023/11/08 09:31:16;;;;;;;1.77;0.65;;;;;;;;;;5007033;28;20029;-78
2023/11/08 09:33:41;;;;;;;2.08;0.40;;;;;;;;;;5008427;28;20505;-80
2023/11/08 09:36:07;;;;;;;2.78;0.55;;;;;;;;;;5009496;28;20026;-79
2023/11/08 09:38:32;;;;;;;6.90;1.00;;;;;;;;;;5004185;28;20157;-79
2023/11/08 09:40:57;;;;;;;3.45;0.70;;;;;;;;;;5003474;28;20044;-80
2023/11/08 09:43:22;;;;;;;3.67;1.05;;;;;;;;;;5015900;28;20057;-79
2023/11/08 09:45:49;;;;;;;2.53;0.50;;;;;;;;;;5010017;28;20030;-80
2023/11/08 09:48:15;;;;;;;3.42;0.77;;;;;;;;;;5009404;28;20034;-80
2023/11/08 09:50:40;;;;;;;1.67;0.60;;;;;;;;;;5006625;28;20075;-80
2023/11/08 09:53:05;;;;;;;4.07;1.00;;;;;;;;;;5011298;28;20473;-80
2023/11/08 09:55:31;;;;;;;2.28;0.68;;;;;;;;;;5004722;28;20021;-79
2023/11/08 09:57:57;;;;;;;2.05;0.30;;;;;;;;;;5009831;28;20507;-80
2023/11/08 10:00:25;;;;;;;3.40;1.38;;;;;;;;;;5015879;28;20032;-80
2023/11/08 10:02:51;;;;;;;2.53;0.52;;;;;;;;;;5007096;28;20033;-80
2023/11/08 10:05:17;;;;;;;3.55;0.60;;;;;;;;;;5010926;28;20033;-80
2023/11/08 10:07:42;;;;;;;5.10;0.70;;;;;;;;;;5003493;28;20117;-79
2023/11/08 10:10:07;;;;;;;2.67;0.57;;;;;;;;;;5011571;28;20025;-80
2023/11/08 10:12:33;;;;;;;2.15;0.63;;;;;;;;;;5001202;28;20040;-80
2023/11/08 10:14:59;;;;;;;3.80;0.63;;;;;;;;;;5016818;28;20749;-80
2023/11/08 10:17:37;;;;;;;2.13;0.60;;;;;;;;;;5006052;28;20108;-80
2023/11/08 10:20:03;;;;;;;3.08;0.68;;;;;;;;;;4987803;28;20083;-80
2023/11/08 10:22:29;;;;;;;1.90;0.52;;;;;;;;;;5003878;28;20026;-80
2023/11/08 10:24:55;;;;;;;4.28;0.65;;;;;;;;;;5010727;28;20130;-80
2023/11/08 10:27:20;;;;;;;5.15;1.33;;;;;;;;;;5010600;28;20443;-80
2023/11/08 10:29:45;;;;;;;3.00;0.77;;;;;;;;;;5008398;28;20073;-80
2023/11/08 10:32:19;;;;;;;6.13;2.25;;;;;;;;;;5014848;28;20026;-79
2023/11/08 10:34:44;;;;;;;3.28;0.77;;;;;;;;;;5013288;28;20035;-80
2023/11/08 10:37:20;;;;;;;1.80;0.60;;;;;;;;;;5022849;28;20091;-79
2023/11/08 10:39:49;;;;;;;1.85;0.30;;;;;;;;;;5013569;28;20041;-79
2023/11/08 10:42:19;;;;;;;2.63;0.52;;;;;;;;;;4999526;28;20025;-79
2023/11/08 10:44:47;;;;;;;2.03;0.35;;;;;;;;;;5002084;28;20030;-79
2023/11/08 10:47:13;;;;;;;0.95;0.30;;;;;;;;;;5014729;28;20410;-80
2023/11/08 10:49:40;;;;;;;2.53;0.40;;;;;;;;;;5024064;28;20395;-80
2023/11/08 10:52:09;;;;;;;3.20;0.60;;;;;;;;;;5014760;28;20061;-80
2023/11/08 10:54:35;;;;;;;3.78;0.60;;;;;;;;;;5006969;28;20533;-79
2023/11/08 10:57:02;;;;;;;4.22;0.50;;;;;;;;;;5005032;28;20030;-79
2023/11/08 10:59:30;;;;;;;2.85;0.50;;;;;;;;;;5013670;28;20034;-80
2023/11/08 11:01:56;;;;;;;1.98;0.60;;;;;;;;;;5002368;28;20037;-79
2023/11/08 11:04:21;;;;;;;1.58;0.40;;;;;;;;;;5001517;28;20457;-79
2023/11/08 11:06:47;;;;;;;2.65;0.35;;;;;;;;;;5011675;28;20030;-78
2023/11/08 11:09:13;;;;;;;2.53;0.68;;;;;;;;;;5012824;28;20040;-78
2023/11/08 11:11:42;;;;;;;1.98;0.40;;;;;;;;;;5004561;28;20117;-78
2023/11/08 11:14:27;;;;;;;2.80;0.45;;;;;;;;;;5010252;28;20025;-78
2023/11/08 11:16:56;;;;;;;2.15;0.52;;;;;;;;;;4999837;28;20039;-77
2023/11/08 11:19:24;;;;;;;2.35;0.60;;;;;;;;;;5010728;28;20390;-78
2023/11/08 11:21:51;;;;;;;1.92;0.65;;;;;;;;;;5013495;28;20030;-78
2023/11/08 11:24:32;;;;;;;2.58;0.52;;;;;;;;;;5012010;28;20025;-77
2023/11/08 11:26:58;;;;;;;2.30;0.50;;;;;;;;;;4999524;28;20030;-78
2023/11/08 11:29:23;;;;;;;6.05;0.43;;;;;;;;;;5008961;28;20399;-78
2023/11/08 11:31:49;;;;;;;1.48;0.40;;;;;;;;;;5008179;28;20028;-77
2023/11/08 11:34:20;;;;;;;1.50;0.50;;;;;;;;;;5013663;28;20022;-78
2023/11/08 11:37:10;;;;;;;1.83;0.52;;;;;;;;;;5001536;28;20075;-78
2023/11/08 11:39:56;;;;;;;2.08;0.50;;;;;;;;;;5008913;28;20022;-77
2023/11/08 11:42:23;;;;;;;3.33;0.57;;;;;;;;;;5008341;28;20383;-78
2023/11/08 11:44:51;;;;;;;1.73;0.43;;;;;;;;;;5007071;28;20061;-78
2023/11/08 11:47:17;;;;;;;2.67;0.22;;;;;;;;;;5009901;28;20034;-76
2023/11/08 11:49:46;;;;;;;2.67;0.40;;;;;;;;;;5011126;28;20029;-76
2023/11/08 11:52:13;;;;;;;2.08;0.50;;;;;;;;;;5010841;28;20029;-78
2023/11/08 11:54:43;;;;;;;2.75;0.70;;;;;;;;;;5007464;28;20398;-78
2023/11/08 11:57:08;;;;;;;2.50;0.75;;;;;;;;;;5007115;28;20029;-77
2023/11/08 11:59:33;;;;;;;4.18;0.60;;;;;;;;;;5005318;28;20034;-78
2023/11/08 12:01:59;;;;;;;2.97;0.60;;;;;;;;;;5010820;28;20086;-78
2023/11/08 12:04:24;;;;;;;1.83;0.45;;;;;;;;;;5011777;28;20033;-78
2023/11/08 12:06:49;;;;;;;2.65;0.47;;;;;;;;;;5018204;28;20513;-78
2023/11/08 12:09:15;;;;;;;2.22;0.40;;;;;;;;;;5008672;28;20402;-77
2023/11/08 12:11:46;;;;;;;2.05;0.47;;;;;;;;;;5007607;28;20030;-76
2023/11/08 12:14:11;;;;;;;1.65;0.30;;;;;;;;;;5008062;28;20172;-78
2023/11/08 12:16:38;;;;;;;5.32;0.60;;;;;;;;;;5012293;28;20490;-76
2023/11/08 12:19:03;;;;;;;2.78;0.80;;;;;;;;;;5010591;28;20088;-78
2023/11/08 12:21:30;;;;;;;2.42;0.65;;;;;;;;;;5009065;28;20030;-78
2023/11/08 12:23:55;;;;;;;3.50;1.13;;;;;;;;;;4987092;28;20463;-77
2023/11/08 12:26:20;;;;;;;0.85;0.22;;;;;;;;;;5008807;28;20056;-78
2023/11/08 12:28:46;;;;;;;1.80;0.40;;;;;;;;;;5010146;28;20049;-78
2023/11/08 12:31:13;;;;;;;2.88;0.47;;;;;;;;;;5011635;28;20487;-78
2023/11/08 12:33:38;;;;;;;2.20;0.50;;;;;;;;;;4986759;28;20029;-78
2023/11/08 12:36:04;;;;;;;4.47;0.60;;;;;;;;;;5008066;28;20026;-78
2023/11/08 12:38:34;;;;;;;1.92;0.50;;;;;;;;;;5007948;28;20030;-78
2023/11/08 12:41:03;;;;;;;3.58;0.60;;;;;;;;;;5008196;28;20092;-78
2023/11/08 12:43:28;;;;;;;5.90;0.60;;;;;;;;;;5012432;28;20057;-78
2023/11/08 12:46:00;;;;;;;2.50;0.55;;;;;;;;;;5011121;28;20054;-78
2023/11/08 12:48:25;;;;;;;;;;;;;;;;;;5005724;28;20518;-78
2023/11/08 12:50:51;;;;;;;1.83;0.30;;;;;;;;;;5010293;28;19909;-78
2023/11/08 12:53:16;;;;;;;1.67;0.52;;;;;;;;;;5005627;28;20284;-78
2023/11/08 12:55:42;;;;;;;2.90;0.40;;;;;;;;;;5005479;28;20022;-77
2023/11/08 12:58:23;;;;;;;1.70;0.52;;;;;;;;;;5011911;28;20038;-78
2023/11/08 13:00:48;;;;;;;3.10;0.52;;;;;;;;;;5009505;28;20035;-78
2023/11/08 13:03:14;;;;;;;2.25;0.55;;;;;;;;;;5011739;28;20483;-78
2023/11/08 13:05:39;;;;;;;3.88;0.73;;;;;;;;;;5005403;28;20030;-79
2023/11/08 13:08:12;;;;;;;0.63;0.30;;;;;;;;;;5005544;28;20038;-78
2023/11/08 13:10:37;;;;;;;1.13;0.70;;;;;;;;;;5009197;28;20041;-79
2023/11/08 13:13:03;;;;;;;2.53;0.63;;;;;;;;;;5011600;28;20034;-78
2023/11/08 13:15:28;;;;;;;3.53;0.65;;;;;;;;;;5012899;28;20490;-78
2023/11/08 13:17:53;;;;;;;3.63;0.43;;;;;;;;;;5007063;28;20089;-78
2023/11/08 13:20:19;;;;;;;1.80;0.40;;;;;;;;;;5006834;28;20048;-78
2023/11/08 13:22:45;;;;;;;3.10;0.98;;;;;;;;;;5005923;28;20038;-78
2023/11/08 13:25:10;;;;;;;1.92;0.30;;;;;;;;;;5011871;28;20032;-78
2023/11/08 13:27:35;;;;;;;1.42;0.40;;;;;;;;;;5010416;28;20038;-78
2023/11/08 13:30:00;;;;;;;1.85;0.35;;;;;;;;;;4998694;28;20120;-78
2023/11/08 13:32:26;;;;;;;2.25;0.45;;;;;;;;;;5009639;28;20022;-78
2023/11/08 13:34:51;;;;;;;1.40;0.40;;;;;;;;;;5014308;28;20037;-78
2023/11/08 13:37:17;;;;;;;0.93;0.28;;;;;;;;;;4999689;28;20521;-78
2023/11/08 13:39:43;;;;;;;2.33;0.40;;;;;;;;;;5008248;28;20030;-77
2023/11/08 13:42:10;;;;;;;3.13;0.40;;;;;;;;;;5009956;28;20044;-76
2023/11/08 13:44:36;;;;;;;2.55;0.38;;;;;;;;;;5011868;28;20629;-78
2023/11/08 13:47:01;;;;;;;1.05;0.52;;;;;;;;;;5004628;28;20124;-78
2023/11/08 13:49:26;;;;;;;3.78;0.80;;;;;;;;;;5004178;28;20104;-77
2023/11/08 13:51:51;;;;;;;4.22;0.60;;;;;;;;;;5005534;28;20022;-77
2023/11/08 13:54:18;;;;;;;3.58;0.50;;;;;;;;;;5011325;28;20024;-78
2023/11/08 13:56:44;;;;;;;1.83;0.50;;;;;;;;;;5006178;28;20034;-78
2023/11/08 13:59:10;;;;;;;3.55;0.60;;;;;;;;;;5008144;28;20026;-79
2023/11/08 14:01:35;;;;;;;4.63;0.82;;;;;;;;;;5005095;28;20040;-78
2023/11/08 14:04:01;;;;;;;2.92;0.73;;;;;;;;;;5007530;28;20046;-77
2023/11/08 14:06:27;;;;;;;2.05;0.40;;;;;;;;;;5007611;28;20057;-78
2023/11/08 14:08:52;;;;;;;3.63;0.50;;;;;;;;;;5000670;28;20042;-78
2023/11/08 14:11:17;;;;;;;2.50;0.95;;;;;;;;;;5011312;28;20087;-78
2023/11/08 14:13:42;;;;;;;2.58;0.82;;;;;;;;;;5009185;28;20028;-78
2023/11/08 14:16:08;;;;;;;5.95;0.70;;;;;;;;;;5018570;28;20022;-78
2023/11/08 14:18:33;;;;;;;2.28;0.50;;;;;;;;;;5010392;28;20105;-78
2023/11/08 14:20:58;;;;;;;0.88;0.30;;;;;;;;;;5011017;28;20084;-78
2023/11/08 14:23:23;;;;;;;0.73;0.22;;;;;;;;;;5007443;28;20034;-78
2023/11/08 14:25:50;;;;;;;2.45;0.30;;;;;;;;;;5008577;28;20042;-78
2023/11/08 14:28:15;;;;;;;1.63;0.38;;;;;;;;;;5011192;28;20058;-78
2023/11/08 14:30:41;;;;;;;1.90;0.30;;;;;;;;;;5000091;28;20061;-78
2023/11/08 14:33:06;;;;;;;0.93;0.40;;;;;;;;;;5004065;28;20068;-78
2023/11/08 14:35:31;;;;;;;4.47;0.40;;;;;;;;;;5005505;28;20032;-78